EDT,Max TemperatureF,Mean TemperatureF,Min TemperatureF,Max Dew PointF,MeanDew PointF,Min DewpointF,Max Humidity, Mean Humidity, Min Humidity, Max Sea Level PressureIn, Mean Sea Level PressureIn, Min Sea Level PressureIn, Max VisibilityMiles, Mean VisibilityMiles, Min VisibilityMiles, Max Wind SpeedMPH, Mean Wind SpeedMPH, Max Gust SpeedMPH,PrecipitationIn, CloudCover, Events, WindDirDegrees
2012-10-1,63,62,60,61,60,59,100,94,83,29.89,29.83,29.78,10,4,1,18,9,24,1.35,8,Rain,52
2012-10-2,80,70,60,70,64,60,100,86,54,29.99,29.81,29.74,10,6,1,12,7,20,0.46,7,Rain-Thunderstorm,191
2012-10-3,77,70,64,62,61,59,90,76,57,30.21,30.10,29.99,10,10,10,9,3,,0.00,2,,213
2012-10-4,81,72,64,63,59,54,94,71,42,30.28,30.22,30.18,10,9,4,7,2,,0.00,1,,269
2012-10-5,81,70,61,58,55,53,78,59,42,30.21,30.12,30.04,10,10,10,8,4,,0.00,0,,330
2012-10-6,82,70,59,63,59,56,93,69,45,30.04,29.96,29.89,10,10,6,10,3,,0.00,2,,237
2012-10-7,68,60,55,61,56,48,94,82,69,30.12,30.02,29.94,10,10,2,15,7,21,0.16,7,Rain-Thunderstorm,44
2012-10-8,55,52,48,49,44,39,86,74,61,30.20,30.16,30.12,10,10,10,15,10,21,0.00,8,,47
2012-10-9,57,52,48,48,46,45,93,82,69,30.21,30.16,30.11,10,10,10,7,4,,0.00,7,,52
2012-10-10,75,58,44,52,47,44,100,78,40,30.16,30.10,30.05,10,7,2,15,4,25,0.00,3,,261
2012-10-11,69,60,50,48,44,41,77,63,42,30.32,30.24,30.16,10,10,10,10,5,,0.00,0,,32
2012-10-12,75,62,52,58,52,48,86,69,52,30.29,30.22,30.18,10,10,10,13,2,20,0.00,2,,28
2012-10-13,68,60,53,53,45,39,74,60,47,30.46,30.37,30.30,10,10,10,16,10,23,0.00,5,,35
2012-10-14,69,63,57,60,54,48,87,71,59,30.32,30.21,30.05,10,10,10,6,2,,0.00,7,Rain,310
2012-10-15,79,68,57,64,58,39,94,77,25,30.03,29.92,29.79,10,10,2,17,6,24,0.14,6,Rain-Thunderstorm,232
2012-10-16,71,61,51,48,43,41,74,54,34,29.99,29.93,29.88,10,10,10,8,3,,0.00,0,,48
2012-10-17,73,62,50,48,46,44,86,62,35,30.00,29.93,29.88,10,10,10,12,2,18,0.00,0,,174
2012-10-18,69,61,53,61,55,46,96,81,67,29.92,29.85,29.80,10,8,2,10,4,,0.03,6,Rain,247
2012-10-19,71,60,50,58,47,29,100,70,22,29.82,29.79,29.73,10,6,0,22,4,31,0.01,2,Fog,246
2012-10-20,71,58,45,47,42,39,80,58,39,29.97,29.86,29.79,10,10,10,9,2,,0.00,0,,256
2012-10-21,71,58,46,48,44,41,83,61,41,30.17,30.11,29.99,10,10,10,7,3,,0.00,0,,303
2012-10-22,78,62,48,52,48,45,86,64,37,30.26,30.19,30.14,10,10,10,5,1,,0.00,0,,155
2012-10-23,78,64,51,52,50,47,89,64,36,30.22,30.16,30.11,10,10,10,7,1,,0.00,0,,238
2012-10-24,80,66,51,53,49,44,89,61,30,30.21,30.15,30.09,10,10,10,6,1,,0.00,0,,228
2012-10-25,78,66,55,58,54,48,80,65,46,30.17,30.12,30.08,10,10,10,9,3,,0.00,2,,52
2012-10-26,79,70,60,59,56,54,86,64,43,30.09,30.02,29.94,10,10,10,13,6,17,0.00,1,,42
2012-10-27,75,68,60,57,55,49,81,67,51,29.94,29.82,29.72,10,10,10,15,9,20,0.00,1,,25
2012-10-28,72,60,48,49,43,32,72,59,39,29.78,29.73,29.67,10,10,7,16,10,24,0.01,3,Rain,348
2012-10-29,57,52,46,32,29,25,54,46,34,29.74,29.69,29.61,10,10,10,22,11,32,0.00,4,,333
2012-10-30,54,49,45,31,28,25,58,48,40,29.71,29.59,29.52,10,10,10,18,11,28,0.00,3,,269
2012-10-31,63,53,44,31,27,18,56,41,20,29.83,29.74,29.70,10,10,10,18,10,26,0.00,2,,257